createdAt,value
2023-04-11T00:00:16.912Z,9.06
2023-04-11T00:02:45.476Z,9.04
2023-04-11T00:05:14.275Z,8.99
2023-04-11T00:07:42.685Z,9.00
2023-04-11T00:10:11.840Z,9.01
2023-04-11T00:12:40.109Z,8.96
2023-04-11T00:15:09.694Z,8.94
2023-04-11T00:17:41.694Z,9.01
2023-04-11T00:20:11.677Z,9.01
2023-04-11T00:22:40.345Z,8.87
2023-04-11T00:25:09.295Z,9.04
2023-04-11T00:27:37.606Z,9.04
2023-04-11T00:30:07.122Z,9.00
2023-04-11T00:32:35.620Z,8.98
2023-04-11T00:35:05.877Z,8.90
2023-04-11T00:37:36.426Z,8.90
2023-04-11T00:40:07.821Z,8.78
2023-04-11T00:42:36.215Z,8.68
2023-04-11T00:45:04.973Z,8.67
2023-04-11T00:47:34.250Z,8.59
2023-04-11T00:50:03.118Z,8.43
2023-04-11T00:52:32.975Z,8.33
2023-04-11T00:55:03.624Z,8.28
2023-04-11T00:57:32.398Z,8.23
2023-04-11T01:00:02.120Z,8.17
2023-04-11T01:02:30.754Z,8.06
2023-04-11T01:05:00.941Z,8.00
2023-04-11T01:07:31.485Z,7.96
2023-04-11T01:10:02.721Z,7.82
2023-04-11T01:12:32.018Z,7.77
2023-04-11T01:15:00.730Z,7.59
2023-04-11T01:17:29.179Z,7.68
2023-04-11T01:19:57.950Z,7.75
2023-04-11T01:22:27.342Z,7.73
2023-04-11T01:24:57.544Z,7.63
2023-04-11T01:27:26.179Z,7.62
2023-04-11T01:29:54.872Z,7.16
2023-04-11T01:32:23.179Z,7.39
2023-04-11T01:34:55.024Z,7.53
2023-04-11T01:37:23.761Z,7.47
2023-04-11T01:39:52.241Z,7.44
2023-04-11T01:42:22.564Z,7.25
2023-04-11T01:44:52.282Z,7.45
2023-04-11T01:47:20.736Z,7.45
2023-04-11T01:49:49.057Z,7.43
2023-04-11T01:52:17.564Z,7.42
2023-04-11T01:54:45.855Z,7.46
2023-04-11T01:57:14.157Z,7.48
2023-04-11T01:59:43.905Z,7.44
2023-04-11T02:02:12.399Z,7.43
2023-04-11T02:04:40.931Z,7.42
2023-04-11T02:07:09.305Z,7.45
2023-04-11T02:09:38.391Z,7.46
2023-04-11T02:12:07.196Z,7.49
2023-04-11T02:14:44.648Z,7.54
2023-04-11T02:17:14.331Z,7.59
2023-04-11T02:19:45.633Z,7.63
2023-04-11T02:22:14.935Z,7.45
2023-04-11T02:24:43.448Z,7.56
2023-04-11T02:27:12.763Z,6.73
2023-04-11T02:29:41.254Z,7.38
2023-04-11T02:32:11.356Z,7.34
2023-04-11T02:34:39.750Z,7.39
2023-04-11T02:37:08.083Z,7.37
2023-04-11T02:39:36.674Z,7.48
2023-04-11T02:42:05.197Z,7.40
2023-04-11T02:44:33.489Z,7.41
2023-04-11T02:47:01.989Z,7.39
2023-04-11T02:49:32.423Z,7.41
2023-04-11T02:52:00.744Z,7.38
2023-04-11T02:54:29.088Z,7.39
2023-04-11T02:56:57.985Z,7.42
2023-04-11T02:59:26.725Z,7.44
2023-04-11T03:01:59.582Z,7.29
2023-04-11T03:04:28.341Z,7.49
2023-04-11T03:06:58.777Z,7.36
2023-04-11T03:09:27.563Z,7.54
2023-04-11T03:11:56.205Z,7.21
2023-04-11T03:14:24.480Z,7.53
2023-04-11T03:16:52.735Z,7.57
2023-04-11T03:19:21.247Z,7.57
2023-04-11T03:21:49.623Z,7.58
2023-04-11T03:24:19.611Z,7.57
2023-04-11T03:26:48.064Z,7.57
2023-04-11T03:29:16.731Z,7.57
2023-04-11T03:31:45.539Z,7.58
2023-04-11T03:34:13.842Z,7.62
2023-04-11T03:36:42.165Z,7.64
2023-04-11T03:39:10.727Z,7.65
2023-04-11T03:41:40.464Z,7.66
2023-04-11T03:44:08.750Z,7.89
2023-04-11T03:46:37.183Z,7.63
2023-04-11T03:49:05.545Z,7.67
2023-04-11T03:51:34.033Z,6.92
2023-04-11T03:54:02.452Z,7.38
2023-04-11T03:56:30.793Z,7.10
2023-04-11T03:59:00.552Z,7.02
2023-04-11T04:01:29.225Z,6.96
2023-04-11T04:03:57.781Z,6.78
2023-04-11T04:06:26.885Z,6.88
2023-04-11T04:08:55.529Z,6.68
2023-04-11T04:11:23.784Z,6.62
2023-04-11T04:13:52.110Z,6.51
2023-04-11T04:16:22.714Z,6.41
2023-04-11T04:18:51.257Z,6.52
2023-04-11T04:21:19.521Z,6.64
2023-04-11T04:23:50.235Z,6.37
2023-04-11T04:26:25.369Z,6.64
2023-04-11T04:28:54.183Z,6.58
2023-04-11T04:31:25.911Z,6.59
2023-04-11T04:33:54.498Z,6.59
2023-04-11T04:36:25.139Z,6.67
2023-04-11T04:38:53.574Z,6.42
2023-04-11T04:41:22.993Z,6.52
2023-04-11T04:43:54.878Z,6.55
2023-04-11T04:46:24.957Z,6.51
2023-04-11T04:48:53.347Z,6.45
2023-04-11T04:51:21.746Z,6.51
2023-04-11T04:53:50.023Z,6.48
2023-04-11T04:56:18.495Z,6.54
2023-04-11T04:58:48.060Z,6.48
2023-04-11T05:01:17.143Z,6.51
2023-04-11T05:03:50.970Z,6.53
2023-04-11T05:06:19.949Z,6.57
2023-04-11T05:08:48.768Z,6.56
2023-04-11T05:11:17.433Z,6.11
2023-04-11T05:13:45.794Z,6.58
2023-04-11T05:16:14.197Z,6.57
2023-04-11T05:18:42.541Z,6.41
2023-04-11T05:21:12.542Z,6.58
2023-04-11T05:23:41.509Z,6.59
2023-04-11T05:26:10.634Z,6.62
2023-04-11T05:28:39.087Z,6.55
2023-04-11T05:31:08.938Z,6.54
2023-04-11T05:33:38.754Z,6.65
2023-04-11T05:36:07.983Z,6.00
2023-04-11T05:38:37.763Z,6.60
2023-04-11T05:41:06.541Z,6.63
2023-04-11T05:43:34.885Z,6.65
2023-04-11T05:46:03.487Z,6.57
2023-04-11T05:48:32.259Z,6.39
2023-04-11T05:51:01.320Z,6.54
2023-04-11T05:53:29.742Z,6.55
2023-04-11T05:55:59.608Z,6.58
2023-04-11T05:58:29.879Z,6.65
2023-04-11T06:00:59.551Z,6.58
2023-04-11T06:03:28.138Z,6.52
2023-04-11T06:05:56.731Z,6.55
2023-04-11T06:08:25.371Z,6.50
2023-04-11T06:10:53.655Z,6.50
2023-04-11T06:13:23.391Z,6.58
2023-04-11T06:15:51.775Z,6.47
2023-04-11T06:18:20.154Z,6.21
2023-04-11T06:20:49.677Z,6.59
2023-04-11T06:23:18.140Z,6.49
2023-04-11T06:25:46.517Z,6.49
2023-04-11T06:28:15.348Z,6.52
2023-04-11T06:30:45.113Z,6.53
2023-04-11T06:33:13.448Z,6.52
2023-04-11T06:35:41.729Z,6.46
2023-04-11T06:38:10.427Z,6.48
2023-04-11T06:40:38.800Z,6.50
2023-04-11T06:43:07.210Z,6.57
2023-04-11T06:45:35.521Z,6.57
2023-04-11T06:48:05.548Z,6.42
2023-04-11T06:50:33.904Z,6.32
2023-04-11T06:53:02.220Z,6.19
2023-04-11T06:55:31.103Z,6.43
2023-04-11T06:57:59.858Z,6.32
2023-04-11T07:00:28.666Z,6.22
2023-04-11T07:02:57.220Z,5.93
2023-04-11T07:05:27.660Z,6.01
2023-04-11T07:07:55.989Z,6.46
2023-04-11T07:10:25.104Z,6.42
2023-04-11T07:12:53.355Z,6.63
2023-04-11T07:15:21.824Z,6.63
2023-04-11T07:17:52.600Z,6.64
2023-04-11T07:20:21.603Z,6.92
2023-04-11T07:22:51.424Z,6.63
2023-04-11T07:25:22.646Z,6.92
2023-04-11T07:27:51.851Z,6.92
2023-04-11T07:30:21.367Z,7.17
2023-04-11T07:32:49.771Z,6.86
2023-04-11T07:35:18.280Z,6.85
2023-04-11T07:37:47.584Z,7.05
2023-04-11T07:40:17.915Z,7.12
2023-04-11T07:42:47.569Z,7.27
2023-04-11T07:45:16.072Z,7.09
2023-04-11T07:47:44.439Z,7.36
2023-04-11T07:50:13.693Z,7.12
2023-04-11T07:52:41.972Z,7.67
2023-04-11T07:55:11.107Z,7.45
2023-04-11T07:57:40.909Z,7.35
2023-04-11T08:00:11.806Z,7.47
2023-04-11T08:02:40.407Z,7.39
2023-04-11T08:05:10.216Z,7.44
2023-04-11T08:07:38.648Z,7.54
2023-04-11T08:10:08.382Z,7.65
2023-04-11T08:12:36.844Z,7.61
2023-04-11T08:15:07.824Z,7.58
2023-04-11T08:17:38.797Z,7.76
2023-04-11T08:20:09.730Z,7.80
2023-04-11T08:22:39.489Z,7.22
2023-04-11T08:25:10.305Z,7.69
2023-04-11T08:27:39.255Z,7.77
2023-04-11T08:30:10.618Z,7.72
2023-04-11T08:32:39.127Z,7.68
2023-04-11T08:35:08.090Z,7.91
2023-04-11T08:37:36.442Z,7.78
2023-04-11T08:40:07.057Z,7.83
2023-04-11T08:42:36.154Z,7.82
2023-04-11T08:45:08.801Z,7.90
2023-04-11T08:47:38.942Z,8.03
2023-04-11T08:50:08.351Z,8.10
2023-04-11T08:52:39.542Z,8.29
2023-04-11T08:55:08.621Z,8.30
2023-04-11T08:57:38.261Z,8.37
2023-04-11T09:00:15.013Z,8.44
2023-04-11T09:02:59.244Z,8.13
2023-04-11T09:05:31.335Z,8.10
2023-04-11T09:08:00.943Z,8.20
2023-04-11T09:10:29.696Z,8.32
2023-04-11T09:12:58.512Z,8.13
2023-04-11T09:15:29.057Z,8.29
2023-04-11T09:18:01.085Z,8.44
2023-04-11T09:20:31.330Z,8.68
2023-04-11T09:23:00.286Z,8.78
2023-04-11T09:25:29.404Z,9.03
2023-04-11T09:28:11.894Z,8.66
2023-04-11T09:30:40.286Z,8.57
2023-04-11T09:33:24.708Z,8.43
2023-04-11T09:35:56.411Z,8.26
2023-04-11T09:38:32.798Z,7.94
2023-04-11T09:41:01.774Z,7.96
2023-04-11T09:43:49.617Z,8.04
2023-04-11T09:46:20.884Z,7.70
2023-04-11T09:48:51.853Z,7.72
2023-04-11T09:51:35.070Z,7.33
2023-04-11T09:54:06.040Z,7.03
2023-04-11T09:56:35.640Z,7.42
2023-04-11T09:59:05.682Z,7.48
2023-04-11T10:01:34.543Z,7.48
2023-04-11T10:04:05.083Z,7.52
2023-04-11T10:06:38.949Z,7.47
2023-04-11T10:09:09.884Z,7.39
2023-04-11T10:11:38.412Z,7.54
2023-04-11T10:14:06.736Z,7.38
2023-04-11T10:16:35.267Z,7.27
2023-04-11T10:19:27.385Z,7.09
2023-04-11T10:21:56.146Z,7.07
2023-04-11T10:24:26.845Z,7.08
2023-04-11T10:26:57.662Z,7.31
2023-04-11T10:29:48.426Z,7.71
2023-04-11T10:32:23.283Z,7.76
2023-04-11T10:35:31.298Z,8.11
2023-04-11T10:38:01.043Z,8.09
2023-04-11T10:40:29.403Z,8.28
2023-04-11T10:42:57.917Z,8.36
2023-04-11T10:45:28.505Z,8.65
2023-04-11T10:48:10.683Z,8.82
2023-04-11T10:50:46.371Z,8.62
2023-04-11T10:53:37.808Z,8.57
2023-04-11T10:56:07.055Z,8.29
2023-04-11T10:58:40.617Z,8.22
2023-04-11T11:01:31.327Z,8.07
2023-04-11T11:04:06.430Z,8.12
2023-04-11T11:06:46.102Z,8.17
2023-04-11T11:09:26.735Z,8.18
2023-04-11T11:12:08.097Z,8.06
2023-04-11T11:14:36.680Z,8.31
2023-04-11T11:17:05.949Z,8.06
2023-04-11T11:19:35.684Z,6.18
2023-04-11T11:22:05.072Z,8.01
2023-04-11T11:24:34.910Z,7.99
2023-04-11T11:27:03.443Z,7.78
2023-04-11T11:29:33.996Z,7.56
2023-04-11T11:32:04.276Z,7.58
2023-04-11T11:34:34.126Z,7.61
2023-04-11T11:37:05.609Z,7.63
2023-04-11T11:39:36.360Z,8.09
2023-04-11T11:42:04.973Z,8.12
2023-04-11T11:44:33.803Z,8.32
2023-04-11T11:47:03.131Z,8.53
2023-04-11T11:49:45.806Z,8.59
2023-04-11T11:52:14.674Z,8.44
2023-04-11T11:54:48.391Z,9.00
2023-04-11T11:57:22.959Z,8.87
2023-04-11T11:59:55.260Z,8.82
2023-04-11T12:02:26.308Z,8.86
2023-04-11T12:05:00.383Z,9.16
2023-04-11T12:07:32.723Z,8.82
2023-04-11T12:10:03.463Z,9.03
2023-04-11T12:12:37.074Z,9.19
2023-04-11T12:15:05.230Z,9.23
2023-04-11T12:17:37.025Z,9.36
2023-04-11T12:20:08.084Z,9.57
2023-04-11T12:22:36.958Z,9.68
2023-04-11T12:25:08.189Z,9.70
2023-04-11T12:27:37.421Z,9.87
2023-04-11T12:30:06.888Z,10.01
2023-04-11T12:32:35.376Z,10.07
2023-04-11T12:35:04.597Z,10.16
2023-04-11T12:37:33.412Z,9.93
2023-04-11T12:40:02.121Z,9.77
2023-04-11T12:45:00.505Z,9.36
2023-04-11T12:47:28.938Z,9.05
2023-04-11T12:49:57.218Z,9.23
2023-04-11T12:52:26.177Z,9.18
2023-04-11T12:54:54.761Z,9.05
2023-04-11T12:57:24.090Z,9.26
2023-04-11T12:59:54.157Z,9.50
2023-04-11T13:02:22.758Z,9.83
2023-04-11T13:04:53.496Z,9.50
2023-04-11T13:07:22.392Z,9.18
2023-04-11T13:09:51.065Z,9.53
2023-04-11T13:12:19.432Z,9.85
2023-04-11T13:14:47.742Z,9.92
2023-04-11T13:17:17.755Z,9.93
2023-04-11T13:19:46.277Z,9.95
2023-04-11T13:22:14.566Z,10.04
2023-04-11T13:24:43.027Z,9.90
2023-04-11T13:27:11.300Z,9.98
2023-04-11T13:29:40.421Z,9.94
2023-04-11T13:32:08.832Z,10.18
2023-04-11T13:34:38.639Z,10.11
2023-04-11T13:37:06.980Z,10.23
2023-04-11T13:39:35.326Z,10.33
2023-04-11T13:42:03.737Z,10.35
2023-04-11T13:44:32.195Z,10.39
2023-04-11T13:47:01.494Z,10.83
2023-04-11T13:49:29.925Z,10.93
2023-04-11T13:51:59.672Z,11.11
2023-04-11T13:54:27.970Z,11.09
2023-04-11T13:56:56.584Z,11.12
2023-04-11T13:59:24.964Z,11.24
2023-04-11T14:01:53.341Z,11.44
2023-04-11T14:04:21.914Z,11.03
2023-04-11T14:06:54.000Z,10.82
2023-04-11T14:09:23.684Z,10.13
2023-04-11T14:11:52.321Z,10.59
2023-04-11T14:14:20.869Z,10.88
2023-04-11T14:16:50.427Z,11.11
2023-04-11T14:19:18.930Z,11.27
2023-04-11T14:21:47.251Z,11.66
2023-04-11T14:24:15.615Z,11.45
2023-04-11T14:26:45.328Z,11.50
2023-04-11T14:29:14.269Z,11.64
2023-04-11T14:31:42.713Z,11.72
2023-04-11T14:34:11.204Z,11.83
2023-04-11T14:36:39.618Z,11.89
2023-04-11T14:39:08.375Z,11.77
2023-04-11T14:41:36.867Z,12.04
2023-04-11T14:44:07.006Z,11.89
2023-04-11T14:46:35.761Z,12.20
2023-04-11T14:49:04.224Z,12.54
2023-04-11T14:51:35.151Z,12.46
2023-04-11T14:54:03.647Z,11.31
2023-04-11T14:56:32.013Z,12.22
2023-04-11T14:59:00.479Z,12.49
2023-04-11T15:01:30.890Z,12.00
2023-04-11T15:03:59.641Z,12.10
2023-04-11T15:06:28.326Z,11.89
2023-04-11T15:08:56.818Z,11.53
2023-04-11T15:11:27.035Z,11.34
2023-04-11T15:13:55.861Z,11.03
2023-04-11T15:16:24.658Z,10.58
2023-04-11T15:18:55.121Z,10.86
2023-04-11T15:21:24.103Z,10.93
2023-04-11T15:23:52.978Z,11.03
2023-04-11T15:26:21.704Z,11.12
2023-04-11T15:28:51.325Z,10.72
2023-04-11T15:31:26.884Z,10.86
2023-04-11T15:34:00.290Z,10.61
2023-04-11T15:36:33.344Z,10.18
2023-04-11T15:39:01.921Z,10.35
2023-04-11T15:41:32.218Z,10.18
2023-04-11T15:44:01.680Z,9.80
2023-04-11T15:46:30.340Z,9.47
2023-04-11T15:49:00.520Z,9.12
2023-04-11T15:51:29.270Z,8.92
2023-04-11T15:53:57.984Z,8.73
2023-04-11T15:56:28.418Z,8.38
2023-04-11T15:58:57.727Z,8.65
2023-04-11T16:01:29.386Z,8.02
2023-04-11T16:04:00.919Z,5.81
2023-04-11T16:06:48.144Z,7.79
2023-04-11T16:09:16.521Z,8.36
2023-04-11T16:11:44.882Z,8.30
2023-04-11T16:14:13.507Z,8.38
2023-04-11T16:16:42.579Z,8.32
2023-04-11T16:19:10.984Z,8.31
2023-04-11T16:21:41.029Z,8.37
2023-04-11T16:24:09.322Z,8.42
2023-04-11T16:26:37.815Z,8.41
2023-04-11T16:29:06.461Z,8.34
2023-04-11T16:31:35.744Z,8.17
2023-04-11T16:34:04.170Z,8.22
2023-04-11T16:36:32.767Z,8.30
2023-04-11T16:39:04.336Z,7.05
2023-04-11T16:41:36.492Z,8.30
2023-04-11T16:44:05.901Z,8.25
2023-04-11T16:46:34.466Z,8.25
2023-04-11T16:49:02.818Z,8.24
2023-04-11T16:51:31.480Z,8.05
2023-04-11T16:53:59.864Z,7.96
2023-04-11T16:56:31.249Z,7.39
2023-04-11T16:58:59.647Z,7.94
2023-04-11T17:01:28.061Z,7.96
2023-04-11T17:03:56.781Z,7.99
2023-04-11T17:06:26.490Z,8.02
2023-04-11T17:08:54.777Z,8.10
2023-04-11T17:11:23.383Z,8.15
2023-04-11T17:13:55.214Z,7.79
2023-04-11T17:16:24.274Z,7.61
2023-04-11T17:18:52.692Z,7.75
2023-04-11T17:21:21.073Z,7.68
2023-04-11T17:23:50.402Z,7.59
2023-04-11T17:26:20.262Z,7.57
2023-04-11T17:28:48.832Z,7.71
2023-04-11T17:31:19.762Z,7.56
2023-04-11T17:33:48.130Z,7.44
2023-04-11T17:36:16.978Z,7.38
2023-04-11T17:38:45.871Z,7.37
2023-04-11T17:41:15.609Z,7.27
2023-04-11T17:43:44.643Z,7.40
2023-04-11T17:46:13.976Z,7.41
2023-04-11T17:48:43.924Z,7.39
2023-04-11T17:51:12.353Z,6.74
2023-04-11T17:53:41.235Z,7.23
2023-04-11T17:56:12.199Z,6.76
2023-04-11T17:58:44.423Z,7.14
2023-04-11T18:01:12.897Z,6.95
2023-04-11T18:03:41.695Z,7.01
2023-04-11T18:06:12.157Z,6.96
2023-04-11T18:11:12.882Z,6.81
2023-04-11T18:13:41.463Z,6.75
2023-04-11T18:16:11.459Z,6.68
2023-04-11T18:18:40.093Z,6.60
2023-04-11T18:21:08.681Z,6.41
2023-04-11T18:23:39.583Z,6.39
2023-04-11T18:26:07.923Z,6.41
2023-04-11T18:28:36.593Z,6.38
2023-04-11T18:31:05.268Z,6.33
2023-04-11T18:33:34.163Z,6.31
2023-04-11T18:36:03.719Z,6.26
2023-04-11T18:38:32.397Z,6.19
2023-04-11T18:41:06.674Z,5.98
2023-04-11T18:43:38.300Z,6.04
2023-04-11T18:46:08.261Z,6.00
2023-04-11T18:48:36.954Z,5.71
2023-04-11T18:51:06.028Z,5.85
2023-04-11T18:53:36.738Z,5.86
2023-04-11T18:56:07.387Z,5.79
2023-04-11T18:58:40.133Z,5.73
2023-04-11T19:01:15.613Z,5.66
2023-04-11T19:03:46.800Z,5.61
2023-04-11T19:06:15.727Z,5.54
2023-04-11T19:08:44.074Z,5.39
2023-04-11T19:11:13.793Z,5.44
2023-04-11T19:13:42.143Z,5.42
2023-04-11T19:16:10.945Z,5.39
2023-04-11T19:18:39.284Z,5.37
2023-04-11T19:21:08.091Z,5.36
2023-04-11T19:23:36.476Z,5.25
2023-04-11T19:26:05.032Z,5.20
2023-04-11T19:28:34.811Z,5.09
2023-04-11T19:31:03.152Z,5.17
2023-04-11T19:33:31.627Z,5.16
2023-04-11T19:36:00.030Z,5.11
2023-04-11T19:38:28.550Z,5.05
2023-04-11T19:40:57.003Z,4.44
2023-04-11T19:43:25.428Z,4.98
2023-04-11T19:45:55.572Z,5.00
2023-04-11T19:48:23.964Z,5.01
2023-04-11T19:50:53.549Z,5.00
2023-04-11T19:53:21.899Z,5.01
2023-04-11T19:55:52.641Z,5.01
2023-04-11T19:58:21.541Z,5.02
2023-04-11T20:00:49.927Z,5.05
2023-04-11T20:03:20.772Z,5.03
2023-04-11T20:05:49.882Z,5.00
2023-04-11T20:08:19.090Z,4.98
2023-04-11T20:10:47.486Z,5.00
2023-04-11T20:13:16.905Z,5.05
2023-04-11T20:15:45.256Z,5.10
2023-04-11T20:18:13.728Z,5.15
2023-04-11T20:20:43.633Z,5.18
2023-04-11T20:23:15.676Z,5.17
2023-04-11T20:25:44.151Z,5.11
2023-04-11T20:28:12.487Z,5.08
2023-04-11T20:30:41.282Z,5.07
2023-04-11T20:33:09.658Z,5.06
2023-04-11T20:35:38.056Z,5.10
2023-04-11T20:38:08.027Z,4.99
2023-04-11T20:40:37.199Z,4.16
2023-04-11T20:43:06.726Z,5.05
2023-04-11T20:45:36.343Z,5.02
2023-04-11T20:48:06.509Z,4.90
2023-04-11T20:50:34.924Z,5.01
2023-04-11T20:53:03.412Z,4.66
2023-04-11T20:55:34.068Z,5.07
2023-04-11T20:58:02.644Z,4.81
2023-04-11T21:00:30.970Z,5.10
2023-04-11T21:02:59.324Z,5.11
2023-04-11T21:05:29.034Z,5.01
2023-04-11T21:07:58.423Z,5.05
2023-04-11T21:10:26.727Z,4.95
2023-04-11T21:12:56.816Z,4.27
2023-04-11T21:15:25.583Z,4.72
2023-04-11T21:17:54.066Z,4.52
2023-04-11T21:20:22.773Z,4.33
2023-04-11T21:22:53.082Z,4.41
2023-04-11T21:25:21.496Z,4.41
2023-04-11T21:27:49.989Z,4.15
2023-04-11T21:30:19.998Z,4.19
2023-04-11T21:32:48.633Z,3.86
2023-04-11T21:35:17.040Z,4.26
2023-04-11T21:37:47.685Z,4.16
2023-04-11T21:40:17.349Z,4.41
2023-04-11T21:42:45.772Z,4.48
2023-04-11T21:45:14.326Z,4.54
2023-04-11T21:47:44.075Z,4.60
2023-04-11T21:50:13.237Z,4.63
2023-04-11T21:52:41.656Z,4.48
2023-04-11T21:55:11.974Z,4.70
2023-04-11T21:57:40.694Z,4.74
2023-04-11T22:00:11.227Z,4.78
2023-04-11T22:02:39.962Z,4.81
2023-04-11T22:05:11.092Z,4.83
2023-04-11T22:07:48.528Z,4.84
2023-04-11T22:10:24.013Z,4.85
2023-04-11T22:12:54.565Z,4.78
2023-04-11T22:15:24.526Z,4.88
2023-04-11T22:17:56.597Z,4.86
2023-04-11T22:20:26.609Z,4.85
2023-04-11T22:22:57.011Z,4.86
2023-04-11T22:25:25.806Z,4.76
2023-04-11T22:27:55.059Z,4.91
2023-04-11T22:30:25.029Z,4.82
2023-04-11T22:32:54.474Z,4.91
2023-04-11T22:35:23.433Z,4.90
2023-04-11T22:37:55.508Z,4.94
2023-04-11T22:40:24.222Z,4.94
2023-04-11T22:42:53.231Z,4.91
2023-04-11T22:45:22.133Z,4.88
2023-04-11T22:47:54.361Z,4.87
2023-04-11T22:50:23.203Z,4.61
2023-04-11T22:52:54.889Z,4.51
2023-04-11T22:55:24.919Z,4.34
2023-04-11T22:57:53.348Z,4.77
2023-04-11T23:00:22.101Z,4.80
2023-04-11T23:02:51.289Z,4.81
2023-04-11T23:05:20.851Z,4.80
2023-04-11T23:07:49.326Z,4.82
2023-04-11T23:10:19.762Z,4.73
2023-04-11T23:12:49.556Z,4.82
2023-04-11T23:15:19.377Z,4.82
2023-04-11T23:17:47.753Z,4.83
2023-04-11T23:20:17.677Z,4.54
2023-04-11T23:22:46.482Z,4.84
2023-04-11T23:25:15.541Z,4.65
2023-04-11T23:27:46.062Z,4.86
2023-04-11T23:30:17.525Z,4.86
2023-04-11T23:32:46.111Z,4.87
2023-04-11T23:35:17.048Z,4.61
2023-04-11T23:37:45.797Z,4.86
2023-04-11T23:40:14.584Z,4.87
2023-04-11T23:42:44.788Z,4.60
2023-04-11T23:45:15.079Z,4.88
2023-04-11T23:47:43.844Z,4.90
2023-04-11T23:50:12.872Z,4.81
2023-04-11T23:52:41.291Z,4.90
2023-04-11T23:55:10.261Z,4.92
2023-04-11T23:57:38.714Z,4.96
